Portada
METAR-TAF:

METAR-TAF

Aeroports :

Màlaga, Espanya

latitud: 36-40N, longitud: 004-29W, altitud: 16 m

Observació

L'informe es va fer fa 27 minuts, a les 16:30 UTC
Vent 9 kt del Sud/Sud-Est, variant entre Est/Sud-Est i Sud/Sud-Oest
Temperatura 18°C
Humitat 59%
Pressió 1014 hPa
Visibilitat 10 km o més
Escasses núvols a una alçada de 4000 ft

METAR: LEMG 261630Z 15009KT 110V200 9999 FEW040 18/10 Q1014 NOSIG

Hora: 17:57 (16:57 UTC)

Pronòstic

L'informe es va fer fa 5 hores i 57 minuts, a les 11:00 UTC
Pronòstic vàlid del 26 a les 12 UTC al 27 a les 12 UTC
Vent 15 kt del Est/Sud-Est
Visibilitat 10 km o més
sense núvols per sota de 1500 mi sense presència de cumulonimbus.
Temporalment
l' 26 a les 12 UTC al 27 a les 06 UTC
Vent 16 kt del Est/Sud-Est amb ràfegues de 28 kt

TAF: LEMG 261100Z 2612/2712 12015KT CAVOK TX21/2612Z TN13/2707Z TEMPO 2612/2706 12016G28KT

Observacions i pronòstics meteorològics de més de 4000 aeroports (METAR i TAF).

Les estacions disponibles són els punts grocs i vermells al mapa.

Posi el ratolí al punt desitjat per veure el nom de l'estació.

Feu clic per veure les observacions i els pronòstics meteorològics.

Per canviar el mapa: feu clic els botons verds amb una creu de color negre per apropar; al botó verd amb un guió per allunyar la imatge; o en les fletxes verdes per a mapes adjacents.


METAR-TAF: